CEB484 RPVB-RPLL
Flight info
| Callsign | CEB484 |
|---|---|
| Flight time | 0h 47m |
| Altitude | 30000 |
| Route | GALIA2A GALIA TR8 KLO TR19 MINOR B473 LAIYA LAIYA3R |
| Aircraft | A320/M-SDE3FGHIRWY/LB1 |
Departure
| Time | 2026-05-07 04:43 |
|---|---|
| Airport | Bacolod-Silay International Airport (RPVB) |
Arrival
| Time | 2026-05-07 05:31 |
|---|---|
| Airport | Ninoy Aquino International Airport (RPLL) |
| Time | Latitude | Longitude | Altitude | Speed | Heading |
|---|---|---|---|---|---|
| 2026-05-07 04:09 | 10.77676 | 123.01578 | 95 ft | 0 kts | 300° |
| 2026-05-07 04:36 | 10.77674 | 123.01581 | 100 ft | 3 kts | 300° |
| 2026-05-07 04:36 | 10.77662 | 123.01606 | 93 ft | 4 kts | 291° |
| 2026-05-07 04:36 | 10.77655 | 123.01631 | 95 ft | 4 kts | 267° |
| 2026-05-07 04:37 | 10.77662 | 123.01651 | 94 ft | 2 kts | 210° |
| 2026-05-07 04:37 | 10.77663 | 123.01652 | 94 ft | 0 kts | 210° |
| 2026-05-07 04:39 | 10.77654 | 123.01647 | 95 ft | 5 kts | 210° |
| 2026-05-07 04:39 | 10.77614 | 123.01623 | 94 ft | 10 kts | 210° |
| 2026-05-07 04:40 | 10.77551 | 123.01587 | 94 ft | 10 kts | 210° |
| 2026-05-07 04:40 | 10.77480 | 123.01546 | 96 ft | 12 kts | 209° |
| 2026-05-07 04:40 | 10.77406 | 123.01513 | 94 ft | 13 kts | 189° |
| 2026-05-07 04:40 | 10.77356 | 123.01533 | 94 ft | 12 kts | 131° |
| 2026-05-07 04:41 | 10.77309 | 123.01612 | 95 ft | 14 kts | 120° |
| 2026-05-07 04:41 | 10.77196 | 123.01640 | 95 ft | 15 kts | 209° |
| 2026-05-07 04:41 | 10.77140 | 123.01608 | 96 ft | 13 kts | 210° |
| 2026-05-07 04:41 | 10.77059 | 123.01560 | 96 ft | 14 kts | 210° |
| 2026-05-07 04:42 | 10.76979 | 123.01513 | 96 ft | 13 kts | 213° |
| 2026-05-07 04:42 | 10.76924 | 123.01444 | 97 ft | 12 kts | 218° |
| 2026-05-07 04:42 | 10.76910 | 123.01474 | 97 ft | 8 kts | 34° |
| 2026-05-07 04:42 | 10.76931 | 123.01486 | 96 ft | 1 kts | 28° |
| 2026-05-07 04:43 | 10.76976 | 123.01511 | 96 ft | 29 kts | 28° |
| 2026-05-07 04:43 | 10.77392 | 123.01755 | 95 ft | 108 kts | 30° |
| 2026-05-07 04:43 | 10.78205 | 123.02225 | 440 ft | 141 kts | 32° |
| 2026-05-07 04:43 | 10.79043 | 123.02704 | 1314 ft | 140 kts | 32° |
| 2026-05-07 04:44 | 10.79897 | 123.03198 | 2121 ft | 138 kts | 33° |
| 2026-05-07 04:44 | 10.80768 | 123.03706 | 2494 ft | 157 kts | 35° |
| 2026-05-07 04:44 | 10.81782 | 123.04301 | 2791 ft | 179 kts | 34° |
| 2026-05-07 04:44 | 10.82927 | 123.04975 | 3027 ft | 202 kts | 35° |
| 2026-05-07 04:45 | 10.84225 | 123.05739 | 3317 ft | 228 kts | 34° |
| 2026-05-07 04:45 | 10.85705 | 123.06519 | 3709 ft | 253 kts | 22° |
| 2026-05-07 04:45 | 10.87489 | 123.06827 | 4370 ft | 268 kts | 4° |
| 2026-05-07 04:45 | 10.89362 | 123.06481 | 5133 ft | 282 kts | 343° |
| 2026-05-07 04:46 | 10.91069 | 123.05438 | 5918 ft | 294 kts | 321° |
| 2026-05-07 04:46 | 10.92315 | 123.03762 | 6691 ft | 303 kts | 298° |
| 2026-05-07 04:46 | 10.93195 | 123.01803 | 7447 ft | 306 kts | 296° |
| 2026-05-07 04:46 | 10.94079 | 122.99814 | 8228 ft | 309 kts | 296° |
| 2026-05-07 04:47 | 10.94972 | 122.97815 | 9017 ft | 312 kts | 296° |
| 2026-05-07 04:47 | 10.95880 | 122.95794 | 9755 ft | 316 kts | 296° |
| 2026-05-07 04:47 | 10.96803 | 122.93746 | 10424 ft | 320 kts | 296° |
| 2026-05-07 04:47 | 10.97751 | 122.91644 | 10812 ft | 337 kts | 296° |
| 2026-05-07 04:48 | 10.98766 | 122.89403 | 11052 ft | 357 kts | 297° |
| 2026-05-07 04:48 | 11.00089 | 122.87246 | 11564 ft | 361 kts | 313° |
| 2026-05-07 04:48 | 11.01950 | 122.85542 | 12174 ft | 361 kts | 327° |
| 2026-05-07 04:48 | 11.04012 | 122.84058 | 12842 ft | 364 kts | 328° |
| 2026-05-07 04:49 | 11.06091 | 122.82568 | 13504 ft | 367 kts | 328° |
| 2026-05-07 04:49 | 11.08184 | 122.81065 | 14093 ft | 370 kts | 328° |
| 2026-05-07 04:49 | 11.10268 | 122.79566 | 14660 ft | 373 kts | 328° |
| 2026-05-07 04:49 | 11.12391 | 122.78034 | 15236 ft | 375 kts | 327° |
| 2026-05-07 04:50 | 11.14530 | 122.76490 | 15806 ft | 378 kts | 327° |
| 2026-05-07 04:50 | 11.16684 | 122.74933 | 16348 ft | 381 kts | 327° |
| 2026-05-07 04:50 | 11.18856 | 122.73365 | 16878 ft | 384 kts | 328° |
| 2026-05-07 04:50 | 11.21044 | 122.71788 | 17411 ft | 387 kts | 328° |
| 2026-05-07 04:51 | 11.23254 | 122.70193 | 17932 ft | 390 kts | 327° |
| 2026-05-07 04:51 | 11.25475 | 122.68587 | 18403 ft | 393 kts | 327° |
| 2026-05-07 04:51 | 11.27714 | 122.66964 | 18853 ft | 395 kts | 327° |
| 2026-05-07 04:51 | 11.29964 | 122.65333 | 19315 ft | 397 kts | 327° |
| 2026-05-07 04:52 | 11.32228 | 122.63704 | 19775 ft | 399 kts | 328° |
| 2026-05-07 04:52 | 11.34518 | 122.62088 | 20226 ft | 401 kts | 328° |
| 2026-05-07 04:52 | 11.36828 | 122.60480 | 20685 ft | 403 kts | 328° |
| 2026-05-07 04:52 | 11.39122 | 122.58886 | 21122 ft | 405 kts | 328° |
| 2026-05-07 04:53 | 11.41453 | 122.57260 | 21555 ft | 407 kts | 328° |
| 2026-05-07 04:53 | 11.43796 | 122.55622 | 21966 ft | 410 kts | 328° |
| 2026-05-07 04:53 | 11.46155 | 122.53965 | 22380 ft | 413 kts | 328° |
| 2026-05-07 04:53 | 11.48526 | 122.52301 | 22781 ft | 415 kts | 328° |
| 2026-05-07 04:54 | 11.50916 | 122.50623 | 23190 ft | 418 kts | 328° |
| 2026-05-07 04:54 | 11.53314 | 122.48936 | 23578 ft | 420 kts | 328° |
| 2026-05-07 04:54 | 11.55723 | 122.47236 | 23917 ft | 422 kts | 327° |
| 2026-05-07 04:54 | 11.58146 | 122.45526 | 24259 ft | 424 kts | 327° |
| 2026-05-07 04:55 | 11.60573 | 122.43812 | 24604 ft | 426 kts | 327° |
| 2026-05-07 04:55 | 11.63015 | 122.42087 | 24929 ft | 427 kts | 327° |
| 2026-05-07 04:55 | 11.65467 | 122.40362 | 25258 ft | 429 kts | 328° |
| 2026-05-07 04:55 | 11.68059 | 122.38863 | 25576 ft | 429 kts | 337° |
| 2026-05-07 04:56 | 11.70858 | 122.37807 | 25898 ft | 429 kts | 346° |
| 2026-05-07 04:56 | 11.73767 | 122.37149 | 26225 ft | 429 kts | 349° |
| 2026-05-07 04:56 | 11.76703 | 122.36527 | 26533 ft | 431 kts | 349° |
| 2026-05-07 04:56 | 11.79641 | 122.35898 | 26835 ft | 433 kts | 349° |
| 2026-05-07 04:57 | 11.82601 | 122.35257 | 27144 ft | 435 kts | 349° |
| 2026-05-07 04:57 | 11.85524 | 122.34621 | 27448 ft | 437 kts | 349° |
| 2026-05-07 04:57 | 11.88504 | 122.33972 | 27716 ft | 439 kts | 348° |
| 2026-05-07 04:57 | 11.91540 | 122.33311 | 27981 ft | 442 kts | 348° |
| 2026-05-07 04:58 | 11.94552 | 122.32654 | 28275 ft | 444 kts | 348° |
| 2026-05-07 04:58 | 11.97581 | 122.31991 | 28567 ft | 445 kts | 348° |
| 2026-05-07 04:58 | 12.00575 | 122.31338 | 28857 ft | 447 kts | 348° |
| 2026-05-07 04:58 | 12.03625 | 122.30676 | 29132 ft | 449 kts | 348° |
| 2026-05-07 04:59 | 12.06690 | 122.30014 | 29404 ft | 452 kts | 348° |
| 2026-05-07 04:59 | 12.09769 | 122.29349 | 29705 ft | 453 kts | 347° |
| 2026-05-07 04:59 | 12.12858 | 122.28677 | 29853 ft | 452 kts | 348° |
| 2026-05-07 04:59 | 12.15882 | 122.28017 | 29874 ft | 435 kts | 347° |
| 2026-05-07 05:00 | 12.21701 | 122.26745 | 29878 ft | 424 kts | 347° |
| 2026-05-07 05:00 | 12.27455 | 122.25499 | 29877 ft | 422 kts | 348° |
| 2026-05-07 05:01 | 12.33201 | 122.24248 | 29871 ft | 422 kts | 347° |
| 2026-05-07 05:01 | 12.38671 | 122.22148 | 29875 ft | 421 kts | 328° |
| 2026-05-07 05:02 | 12.43529 | 122.18787 | 29871 ft | 422 kts | 326° |
| 2026-05-07 05:02 | 12.48387 | 122.15422 | 29870 ft | 422 kts | 326° |
| 2026-05-07 05:03 | 12.53246 | 122.12061 | 29869 ft | 421 kts | 326° |
| 2026-05-07 05:03 | 12.58102 | 122.08693 | 29871 ft | 421 kts | 326° |
| 2026-05-07 05:04 | 12.62954 | 122.05317 | 29871 ft | 421 kts | 326° |
| 2026-05-07 05:04 | 12.67797 | 122.01941 | 29866 ft | 421 kts | 326° |
| 2026-05-07 05:05 | 12.72642 | 121.98569 | 29862 ft | 421 kts | 326° |
| 2026-05-07 05:05 | 12.77492 | 121.95196 | 29858 ft | 421 kts | 326° |
| 2026-05-07 05:06 | 12.82303 | 121.91839 | 29859 ft | 422 kts | 325° |
| 2026-05-07 05:06 | 12.87155 | 121.88454 | 29861 ft | 422 kts | 326° |
| 2026-05-07 05:07 | 12.92012 | 121.85069 | 29866 ft | 422 kts | 326° |
| 2026-05-07 05:07 | 12.96872 | 121.81684 | 29869 ft | 422 kts | 326° |
| 2026-05-07 05:08 | 13.01734 | 121.78297 | 29873 ft | 422 kts | 326° |
| 2026-05-07 05:08 | 13.06584 | 121.74910 | 29878 ft | 422 kts | 326° |
| 2026-05-07 05:09 | 13.09002 | 121.73219 | 29756 ft | 418 kts | 326° |
| 2026-05-07 05:09 | 13.11383 | 121.71554 | 29490 ft | 409 kts | 326° |
| 2026-05-07 05:09 | 13.13720 | 121.69919 | 29224 ft | 405 kts | 326° |
| 2026-05-07 05:09 | 13.16039 | 121.68298 | 28963 ft | 402 kts | 326° |
| 2026-05-07 05:10 | 13.18350 | 121.66683 | 28703 ft | 400 kts | 326° |
| 2026-05-07 05:10 | 13.20646 | 121.65076 | 28443 ft | 399 kts | 326° |
| 2026-05-07 05:10 | 13.22934 | 121.63475 | 28195 ft | 397 kts | 326° |
| 2026-05-07 05:10 | 13.25214 | 121.61880 | 27944 ft | 396 kts | 326° |
| 2026-05-07 05:11 | 13.27487 | 121.60292 | 27689 ft | 392 kts | 326° |
| 2026-05-07 05:11 | 13.29726 | 121.58728 | 27278 ft | 388 kts | 326° |
| 2026-05-07 05:11 | 13.31948 | 121.57173 | 26839 ft | 385 kts | 327° |
| 2026-05-07 05:11 | 13.34148 | 121.55628 | 26403 ft | 382 kts | 327° |
| 2026-05-07 05:12 | 13.36337 | 121.54091 | 25959 ft | 380 kts | 327° |
| 2026-05-07 05:12 | 13.38520 | 121.52562 | 25508 ft | 379 kts | 327° |
| 2026-05-07 05:12 | 13.40690 | 121.51041 | 25056 ft | 377 kts | 327° |
| 2026-05-07 05:12 | 13.42831 | 121.49540 | 24590 ft | 377 kts | 327° |
| 2026-05-07 05:13 | 13.44992 | 121.48025 | 24123 ft | 376 kts | 327° |
| 2026-05-07 05:13 | 13.47158 | 121.46505 | 23646 ft | 377 kts | 327° |
| 2026-05-07 05:13 | 13.49322 | 121.44986 | 23114 ft | 377 kts | 327° |
| 2026-05-07 05:13 | 13.51481 | 121.43469 | 22633 ft | 375 kts | 327° |
| 2026-05-07 05:14 | 13.53659 | 121.41939 | 22147 ft | 374 kts | 327° |
| 2026-05-07 05:14 | 13.55802 | 121.40436 | 21693 ft | 372 kts | 327° |
| 2026-05-07 05:14 | 13.57894 | 121.38965 | 21423 ft | 365 kts | 326° |
| 2026-05-07 05:14 | 13.59958 | 121.37465 | 21017 ft | 363 kts | 326° |
| 2026-05-07 05:15 | 13.61996 | 121.35944 | 20602 ft | 361 kts | 325° |
| 2026-05-07 05:15 | 13.64021 | 121.34417 | 20182 ft | 360 kts | 325° |
| 2026-05-07 05:15 | 13.66034 | 121.32899 | 19795 ft | 358 kts | 325° |
| 2026-05-07 05:15 | 13.68040 | 121.31392 | 19411 ft | 356 kts | 326° |
| 2026-05-07 05:16 | 13.70034 | 121.29898 | 19057 ft | 354 kts | 326° |
| 2026-05-07 05:16 | 13.72022 | 121.28414 | 18690 ft | 352 kts | 326° |
| 2026-05-07 05:16 | 13.74002 | 121.26940 | 18329 ft | 350 kts | 326° |
| 2026-05-07 05:16 | 13.75967 | 121.25475 | 17930 ft | 347 kts | 326° |
| 2026-05-07 05:17 | 13.77907 | 121.24027 | 17227 ft | 343 kts | 325° |
| 2026-05-07 05:17 | 13.79833 | 121.22589 | 16551 ft | 341 kts | 326° |
| 2026-05-07 05:17 | 13.81734 | 121.21167 | 16032 ft | 334 kts | 325° |
| 2026-05-07 05:17 | 13.83585 | 121.19782 | 15642 ft | 324 kts | 326° |
| 2026-05-07 05:18 | 13.85387 | 121.18436 | 15264 ft | 315 kts | 326° |
| 2026-05-07 05:18 | 13.87138 | 121.17129 | 14903 ft | 307 kts | 325° |
| 2026-05-07 05:18 | 13.88856 | 121.15849 | 14547 ft | 304 kts | 326° |
| 2026-05-07 05:18 | 13.90575 | 121.14569 | 14188 ft | 307 kts | 325° |
| 2026-05-07 05:19 | 13.92313 | 121.13274 | 13822 ft | 309 kts | 325° |
| 2026-05-07 05:19 | 13.94061 | 121.11973 | 13434 ft | 311 kts | 325° |
| 2026-05-07 05:19 | 13.95820 | 121.10661 | 13050 ft | 312 kts | 325° |
| 2026-05-07 05:19 | 13.97574 | 121.09350 | 12674 ft | 312 kts | 325° |
| 2026-05-07 05:20 | 13.99327 | 121.08038 | 12301 ft | 311 kts | 325° |
| 2026-05-07 05:20 | 14.01078 | 121.06726 | 11916 ft | 311 kts | 325° |
| 2026-05-07 05:20 | 14.02833 | 121.05411 | 11531 ft | 312 kts | 325° |
| 2026-05-07 05:20 | 14.04587 | 121.04098 | 11146 ft | 312 kts | 325° |
| 2026-05-07 05:21 | 14.06344 | 121.02782 | 10808 ft | 310 kts | 324° |
| 2026-05-07 05:21 | 14.09830 | 121.00176 | 10092 ft | 309 kts | 325° |
| 2026-05-07 05:21 | 14.11546 | 120.98892 | 9762 ft | 308 kts | 325° |
| 2026-05-07 05:22 | 14.13300 | 120.97575 | 9384 ft | 307 kts | 326° |
| 2026-05-07 05:22 | 14.14953 | 120.96333 | 9225 ft | 289 kts | 325° |
| 2026-05-07 05:22 | 14.16560 | 120.95129 | 8914 ft | 282 kts | 325° |
| 2026-05-07 05:22 | 14.18195 | 120.94060 | 8713 ft | 276 kts | 333° |
| 2026-05-07 05:23 | 14.19884 | 120.93078 | 8294 ft | 279 kts | 332° |
| 2026-05-07 05:23 | 14.21561 | 120.92087 | 7908 ft | 279 kts | 332° |
| 2026-05-07 05:23 | 14.23240 | 120.91089 | 7605 ft | 278 kts | 333° |
| 2026-05-07 05:23 | 14.24917 | 120.90091 | 7214 ft | 279 kts | 332° |
| 2026-05-07 05:24 | 14.26606 | 120.89087 | 6871 ft | 277 kts | 333° |
| 2026-05-07 05:24 | 14.28226 | 120.88126 | 6657 ft | 261 kts | 333° |
| 2026-05-07 05:24 | 14.29788 | 120.87216 | 6269 ft | 255 kts | 333° |
| 2026-05-07 05:24 | 14.31305 | 120.86339 | 5890 ft | 251 kts | 334° |
| 2026-05-07 05:25 | 14.32812 | 120.85467 | 5539 ft | 246 kts | 334° |
| 2026-05-07 05:25 | 14.34306 | 120.84603 | 5200 ft | 241 kts | 333° |
| 2026-05-07 05:25 | 14.35731 | 120.83779 | 4874 ft | 236 kts | 334° |
| 2026-05-07 05:25 | 14.37170 | 120.82951 | 4548 ft | 238 kts | 335° |
| 2026-05-07 05:26 | 14.38726 | 120.82479 | 4142 ft | 233 kts | 7° |
| 2026-05-07 05:26 | 14.40198 | 120.83066 | 3636 ft | 223 kts | 46° |
| 2026-05-07 05:26 | 14.41061 | 120.84303 | 3334 ft | 213 kts | 62° |
| 2026-05-07 05:26 | 14.41778 | 120.85607 | 3064 ft | 206 kts | 63° |
| 2026-05-07 05:27 | 14.42470 | 120.86859 | 2822 ft | 197 kts | 63° |
| 2026-05-07 05:27 | 14.43142 | 120.88068 | 2566 ft | 192 kts | 62° |
| 2026-05-07 05:27 | 14.43786 | 120.89225 | 2312 ft | 180 kts | 61° |
| 2026-05-07 05:27 | 14.44388 | 120.90307 | 2117 ft | 165 kts | 61° |
| 2026-05-07 05:28 | 14.44762 | 120.90978 | 1973 ft | 155 kts | 61° |
| 2026-05-07 05:28 | 14.45440 | 120.92198 | 1712 ft | 144 kts | 61° |
| 2026-05-07 05:28 | 14.45774 | 120.92798 | 1585 ft | 142 kts | 61° |
| 2026-05-07 05:28 | 14.46421 | 120.93961 | 1352 ft | 141 kts | 61° |
| 2026-05-07 05:29 | 14.46751 | 120.94555 | 1240 ft | 141 kts | 61° |
| 2026-05-07 05:29 | 14.47240 | 120.95433 | 1064 ft | 142 kts | 60° |
| 2026-05-07 05:29 | 14.47733 | 120.96320 | 881 ft | 142 kts | 62° |
| 2026-05-07 05:29 | 14.48231 | 120.97200 | 727 ft | 143 kts | 62° |
| 2026-05-07 05:30 | 14.48731 | 120.98086 | 519 ft | 144 kts | 63° |
| 2026-05-07 05:30 | 14.49211 | 120.98976 | 379 ft | 141 kts | 64° |
| 2026-05-07 05:30 | 14.49706 | 120.99853 | 175 ft | 141 kts | 64° |
| 2026-05-07 05:30 | 14.50173 | 121.00709 | 62 ft | 125 kts | 59° |
| 2026-05-07 05:31 | 14.50516 | 121.01325 | 67 ft | 74 kts | 60° |
| 2026-05-07 05:31 | 14.50689 | 121.01631 | 60 ft | 29 kts | 58° |
| 2026-05-07 05:31 | 14.50799 | 121.01742 | 63 ft | 20 kts | 35° |
| 2026-05-07 05:31 | 14.50882 | 121.01787 | 62 ft | 11 kts | 344° |
| 2026-05-07 05:32 | 14.50935 | 121.01739 | 66 ft | 10 kts | 315° |
| 2026-05-07 05:32 | 14.50980 | 121.01692 | 61 ft | 9 kts | 315° |
| 2026-05-07 05:32 | 14.51020 | 121.01651 | 61 ft | 8 kts | 315° |
| 2026-05-07 05:32 | 14.51060 | 121.01611 | 63 ft | 9 kts | 315° |
| 2026-05-07 05:33 | 14.51112 | 121.01558 | 58 ft | 11 kts | 315° |
| 2026-05-07 05:33 | 14.51168 | 121.01499 | 62 ft | 13 kts | 315° |
| 2026-05-07 05:33 | 14.51232 | 121.01434 | 66 ft | 13 kts | 320° |
| 2026-05-07 05:33 | 14.51308 | 121.01458 | 58 ft | 14 kts | 48° |
| 2026-05-07 05:34 | 14.51370 | 121.01531 | 65 ft | 14 kts | 35° |
| 2026-05-07 05:34 | 14.51449 | 121.01492 | 66 ft | 14 kts | 315° |
| 2026-05-07 05:34 | 14.51515 | 121.01425 | 66 ft | 13 kts | 315° |
| 2026-05-07 05:34 | 14.51593 | 121.01345 | 67 ft | 19 kts | 316° |
| 2026-05-07 05:35 | 14.51696 | 121.01239 | 67 ft | 22 kts | 316° |
| 2026-05-07 05:35 | 14.51806 | 121.01125 | 64 ft | 23 kts | 315° |
| 2026-05-07 05:35 | 14.51882 | 121.01051 | 64 ft | 11 kts | 329° |
| 2026-05-07 05:35 | 14.51956 | 121.01065 | 64 ft | 11 kts | 354° |
| 2026-05-07 05:36 | 14.52021 | 121.01007 | 63 ft | 14 kts | 315° |
| 2026-05-07 05:36 | 14.52095 | 121.00931 | 64 ft | 16 kts | 315° |
| 2026-05-07 05:36 | 14.52169 | 121.00855 | 64 ft | 11 kts | 314° |
| 2026-05-07 05:36 | 14.52218 | 121.00816 | 66 ft | 6 kts | 3° |
| 2026-05-07 05:37 | 14.52248 | 121.00849 | 61 ft | 7 kts | 47° |
| 2026-05-07 05:37 | 14.52282 | 121.00885 | 62 ft | 6 kts | 45° |
| 2026-05-07 05:37 | 14.52289 | 121.00893 | 64 ft | 0 kts | 45° |